createdAt,value
2019-04-23T00:31:36.031Z,1003.29
2019-04-23T00:41:02.597Z,1003.27
2019-04-23T00:50:58.134Z,1003.26
2019-04-23T01:01:10.913Z,1003.10
2019-04-23T01:20:53.391Z,1003.06
2019-04-23T01:31:19.902Z,1002.96
2019-04-23T01:41:12.737Z,1002.95
2019-04-23T02:01:31.360Z,1002.87
2019-04-23T02:11:11.324Z,1002.74
2019-04-23T02:21:22.124Z,1002.72
2019-04-23T02:32:08.227Z,1002.69
2019-04-23T02:41:53.591Z,1002.60
2019-04-23T02:51:50.592Z,1002.51
2019-04-23T03:01:29.665Z,1002.44
2019-04-23T03:11:30.413Z,1002.38
2019-04-23T03:21:42.387Z,1002.29
2019-04-23T03:41:47.801Z,1002.24
2019-04-23T03:51:08.796Z,1002.14
2019-04-23T04:01:43.082Z,1002.11
2019-04-23T04:11:33.242Z,1002.13
2019-04-23T04:31:50.279Z,1002.14
2019-04-23T04:41:13.137Z,1002.11
2019-04-23T04:51:57.573Z,1002.09
2019-04-23T05:01:22.163Z,1002.11
2019-04-23T05:11:34.674Z,1002.09
2019-04-23T05:21:38.565Z,1002.13
2019-04-23T05:31:27.505Z,1002.12
2019-04-23T05:51:41.811Z,1002.23
2019-04-23T06:01:41.199Z,1002.21
2019-04-23T06:11:08.111Z,1002.20
2019-04-23T06:21:49.234Z,1002.18
2019-04-23T06:31:30.666Z,1002.18
2019-04-23T06:41:36.015Z,1002.14
2019-04-23T06:51:11.019Z,1002.16
2019-04-23T07:00:47.732Z,1002.21
2019-04-23T07:11:33.614Z,1002.18
2019-04-23T07:21:27.635Z,1002.16
2019-04-23T07:30:59.799Z,1002.16
2019-04-23T07:41:29.802Z,1002.19
2019-04-23T07:51:13.663Z,1002.17
2019-04-23T08:01:17.237Z,1002.17
2019-04-23T08:11:29.839Z,1002.18
2019-04-23T08:21:30.462Z,1002.11
2019-04-23T08:31:37.961Z,1002.10
2019-04-23T08:41:26.715Z,1002.02
2019-04-23T09:01:45.865Z,1001.90
2019-04-23T09:11:34.930Z,1001.92
2019-04-23T09:21:07.187Z,1001.73
2019-04-23T09:27:05.326Z,1001.65
2019-04-23T09:31:18.287Z,1001.62
2019-04-23T09:42:08.224Z,1001.48
2019-04-23T09:51:29.666Z,1001.51
2019-04-23T10:01:11.750Z,1001.38
2019-04-23T10:10:06.266Z,1001.36
2019-04-23T10:20:12.775Z,1001.43
2019-04-23T10:30:12.238Z,1001.38
2019-04-23T10:40:30.161Z,1001.33
2019-04-23T11:11:34.162Z,1001.24
2019-04-23T11:21:40.161Z,1001.16
2019-04-23T11:40:58.223Z,1001.28
2019-04-23T12:01:52.134Z,1001.27
2019-04-23T12:12:16.705Z,1001.19
2019-04-23T12:21:12.337Z,1001.13
2019-04-23T12:31:06.746Z,1001.29
2019-04-23T12:41:28.133Z,1001.29
2019-04-23T12:52:00.889Z,1001.23
2019-04-23T13:01:42.134Z,1001.25
2019-04-23T13:11:05.200Z,1001.17
2019-04-23T13:21:21.527Z,1001.26
2019-04-23T13:31:14.132Z,1001.18
2019-04-23T13:41:51.887Z,1001.20
2019-04-23T13:53:07.020Z,1001.11
2019-04-23T14:11:23.091Z,1001.08
2019-04-23T14:21:44.253Z,1001.14
2019-04-23T14:41:42.194Z,1001.18
2019-04-23T15:01:37.863Z,1001.09
2019-04-23T15:11:25.927Z,1001.22
2019-04-23T15:22:13.292Z,1001.25
2019-04-23T15:31:48.622Z,1001.30
2019-04-23T15:41:23.037Z,1001.40
2019-04-23T16:01:20.994Z,1001.50
2019-04-23T16:11:42.666Z,1001.58
2019-04-23T16:31:38.967Z,1001.65
2019-04-23T16:41:23.983Z,1001.75
2019-04-23T16:51:27.252Z,1001.76
2019-04-23T17:01:32.834Z,1001.73
2019-04-23T17:11:23.376Z,1001.76
2019-04-23T17:21:42.197Z,1001.82
2019-04-23T17:41:11.097Z,1001.94
2019-04-23T17:51:25.876Z,1002.02
2019-04-23T18:01:46.678Z,1002.07
2019-04-23T18:21:49.765Z,1002.26
2019-04-23T18:31:05.719Z,1002.29
2019-04-23T18:41:24.946Z,1002.25
2019-04-23T18:51:40.258Z,1002.46
2019-04-23T19:01:57.730Z,1002.58
2019-04-23T19:11:20.719Z,1002.69
2019-04-23T19:21:27.438Z,1002.72
2019-04-23T19:31:41.810Z,1002.80
2019-04-23T19:41:58.757Z,1002.75
2019-04-23T19:51:22.925Z,1002.80
2019-04-23T20:01:54.864Z,1002.74
2019-04-23T20:11:50.053Z,1002.67
2019-04-23T20:21:29.762Z,1002.72
2019-04-23T20:51:22.175Z,1002.74
2019-04-23T21:01:12.987Z,1002.83
2019-04-23T21:11:47.466Z,1002.86
2019-04-23T21:21:16.166Z,1002.93
2019-04-23T21:31:53.440Z,1002.98
2019-04-23T21:41:56.119Z,1003.00
2019-04-23T21:51:57.248Z,1002.96
2019-04-23T22:01:43.368Z,1003.16
2019-04-23T22:12:08.052Z,1003.14
2019-04-23T22:21:45.097Z,1003.20
2019-04-23T22:31:35.328Z,1003.13
2019-04-23T22:41:33.611Z,1003.28
2019-04-23T22:51:27.733Z,1003.26
2019-04-23T23:01:12.357Z,1003.27
2019-04-23T23:11:08.093Z,1003.34
2019-04-23T23:21:51.335Z,1003.36
2019-04-23T23:31:35.500Z,1003.39
2019-04-23T23:41:30.579Z,1003.36
2019-04-23T23:51:15.408Z,1003.34
